Flora Vista, NM

9:32 PM MDT on September 01, 2014 (GMT -0600)
Foothills | Change Station
CLOSE
Current Station
Personal Weather Station
Location: Farmington, NM
Elevation: 5791 ft
Nearby Weather Stations

Elev 5791 ft 36.80 °N, 108.14 °W | Updated 10 seconds ago

Clear
Clear
77.0 °F
Feels Like 77 °F
N
9.6
Wind Variable Wind from NNW
Gusts 11.0 mph

Today
High -- | Low -- °F
--% Chance of Precip.
Yesterday
High -- | Low -- °F
Precip. -- in
6:43 AM 7:40 PM
Waxing Crescent, 47% visible
Pressure 29.88 in
Visibility 10.0 miles
Clouds Clear
Heat Index 77 °F
Dew Point 31 °F
Humidity 18%
Rainfall 0.00 in
Snow Depth Not available.
UV 0 out of 12
Pollen 9.20 out of 12
Air Quality Not available.
Flu Activity Not available.
METAR KFMN 020253Z 00000KT 10SM CLR 25/M03 A3006 RMK AO2 SLP117 T02501028 53007

More Conditions Fewer Conditions

Pressure 29.88 in
Visibility 10.0 miles
Clouds Clear
Heat Index 77 °F
Dew Point 31 °F
Humidity 18%
Rainfall 0.00 in
Snow Depth Not available.
UV 0 out of 12
Pollen 9.20 out of 12
Air Quality Not available.
Flu Activity Not available.
METAR KFMN 020253Z 00000KT 10SM CLR 25/M03 A3006 RMK AO2 SLP117 T02501028 53007

More Conditions Fewer Conditions

10-Day Weather Forecast

Almanac

Astronomy

Sep. 01, 2014 Rise Set
Actual Time 6:43 AM MDT 7:40 PM MDT
Civil Twilight 6:16 AM MDT 8:06 PM MDT
Nautical Twilight 5:45 AM MDT 8:38 PM MDT
Astronomical Twilight 5:12 AM MDT 9:10 PM MDT
Moon 1:21 PM MDT (9/1) 11:54 PM MDT (9/1)
Length of Visible Light 13h 50m
Length of Day
12h 57m
Tomorrow will be 2m 15s shorter.
Waxing Crescent, 47% of the Moon is Illuminated
Today
Waxing Crescent
Sep 2
First Quarter
Sep 8
Full
Sep 15
Last Quarter
Sep 24
New

Today's Extremes

State Highs State Lows

Community

WunderPhotos

Upload Photos

1,749,555 photos uploaded!

WunderBlogs® & News

Nearby

Snow Depth

Station Depth Elevation
Chamita 0 in 8400 ft
Bateman 0 in 9300 ft
Hopewell 0 in 10000 ft
Quemazon 1 in 9500 ft
Santa Fe 1 in 11445 ft

Earthquake Activity

City Distance Mag. Time & Date
No recent earthquake activity has been reported nearby.
Minimum magnitude displayed is 2.5.

Coastal Water Temperatures

Place Temperature
No Stations Reporting

Nearby Weather Stations